sensor_id;sensor_type;location;lat;lon;timestamp;pressure;altitude;pressure_sealevel;temperature;humidity
50734;BME280;36701;51.798;19.474;2022-08-11T00:00:01;99752.25;;;17.54;100.00
50734;BME280;36701;51.798;19.474;2022-08-11T00:02:51;99752.50;;;17.58;100.00
50734;BME280;36701;51.798;19.474;2022-08-11T00:05:20;99756.03;;;17.64;100.00
50734;BME280;36701;51.798;19.474;2022-08-11T00:07:51;99716.66;;;17.35;100.00
50734;BME280;36701;51.798;19.474;2022-08-11T00:10:22;99741.66;;;17.48;100.00
50734;BME280;36701;51.798;19.474;2022-08-11T00:12:52;99688.41;;;17.16;100.00
50734;BME280;36701;51.798;19.474;2022-08-11T00:15:19;99751.44;;;17.54;100.00
50734;BME280;36701;51.798;19.474;2022-08-11T00:17:46;99738.38;;;17.51;100.00
50734;BME280;36701;51.798;19.474;2022-08-11T00:20:14;99729.13;;;17.47;100.00
50734;BME280;36701;51.798;19.474;2022-08-11T00:22:44;99752.50;;;17.58;100.00
50734;BME280;36701;51.798;19.474;2022-08-11T00:25:16;99749.53;;;17.54;100.00
50734;BME280;36701;51.798;19.474;2022-08-11T00:27:43;99739.50;;;17.39;100.00
50734;BME280;36701;51.798;19.474;2022-08-11T00:30:11;99750.53;;;17.69;100.00
50734;BME280;36701;51.798;19.474;2022-08-11T00:32:41;99755.16;;;17.73;100.00
50734;BME280;36701;51.798;19.474;2022-08-11T00:35:12;99763.28;;;17.78;100.00
50734;BME280;36701;51.798;19.474;2022-08-11T00:37:44;99751.91;;;17.71;100.00
50734;BME280;36701;51.798;19.474;2022-08-11T00:40:24;99681.84;;;17.27;100.00
50734;BME280;36701;51.798;19.474;2022-08-11T00:43:12;99755.47;;;17.67;100.00
50734;BME280;36701;51.798;19.474;2022-08-11T00:46:14;99743.25;;;17.59;100.00
50734;BME280;36701;51.798;19.474;2022-08-11T01:08:16;99746.38;;;17.16;100.00
50734;BME280;36701;51.798;19.474;2022-08-11T01:31:24;99751.00;;;17.05;100.00
50734;BME280;36701;51.798;19.474;2022-08-11T01:40:36;99757.53;;;17.10;100.00
50734;BME280;36701;51.798;19.474;2022-08-11T01:43:03;99756.44;;;17.05;100.00
50734;BME280;36701;51.798;19.474;2022-08-11T01:48:38;99739.03;;;17.06;100.00
50734;BME280;36701;51.798;19.474;2022-08-11T01:57:35;99715.12;;;16.73;100.00
50734;BME280;36701;51.798;19.474;2022-08-11T02:00:11;99757.03;;;16.92;100.00
50734;BME280;36701;51.798;19.474;2022-08-11T02:02:57;99743.94;;;16.74;100.00
50734;BME280;36701;51.798;19.474;2022-08-11T02:11:04;99716.25;;;16.56;100.00
50734;BME280;36701;51.798;19.474;2022-08-11T02:16:39;99753.75;;;16.69;100.00
50734;BME280;36701;51.798;19.474;2022-08-11T02:19:42;99754.28;;;16.66;100.00
50734;BME280;36701;51.798;19.474;2022-08-11T02:37:16;99753.19;;;16.42;100.00
50734;BME280;36701;51.798;19.474;2022-08-11T02:48:00;99758.66;;;16.52;100.00
50734;BME280;36701;51.798;19.474;2022-08-11T02:56:51;99753.22;;;16.47;100.00
50734;BME280;36701;51.798;19.474;2022-08-11T03:16:33;99698.81;;;16.01;100.00
50734;BME280;36701;51.798;19.474;2022-08-11T03:19:45;99705.88;;;15.96;100.00
50734;BME280;36701;51.798;19.474;2022-08-11T03:22:33;99740.69;;;16.20;100.00
50734;BME280;36701;51.798;19.474;2022-08-11T03:27:49;99704.13;;;15.70;100.00
50734;BME280;36701;51.798;19.474;2022-08-11T03:30:26;99747.66;;;15.90;100.00
50734;BME280;36701;51.798;19.474;2022-08-11T03:36:29;99746.59;;;15.96;100.00
50734;BME280;36701;51.798;19.474;2022-08-11T03:47:43;99745.56;;;16.23;100.00
50734;BME280;36701;51.798;19.474;2022-08-11T03:50:45;99754.84;;;16.32;100.00
50734;BME280;36701;51.798;19.474;2022-08-11T03:53:48;99711.31;;;16.02;100.00
50734;BME280;36701;51.798;19.474;2022-08-11T04:29:49;99771.69;;;16.60;100.00
50734;BME280;36701;51.798;19.474;2022-08-11T04:53:12;99771.31;;;17.54;100.00
50734;BME280;36701;51.798;19.474;2022-08-11T04:56:13;99734.53;;;17.57;100.00
50734;BME280;36701;51.798;19.474;2022-08-11T05:05:34;99772.94;;;18.15;100.00
50734;BME280;36701;51.798;19.474;2022-08-11T05:11:48;99772.31;;;18.29;100.00
50734;BME280;36701;51.798;19.474;2022-08-11T05:14:27;99782.94;;;18.30;100.00
50734;BME280;36701;51.798;19.474;2022-08-11T05:17:20;99776.56;;;18.45;100.00
50734;BME280;36701;51.798;19.474;2022-08-11T05:20:10;99728.72;;;18.29;100.00
50734;BME280;36701;51.798;19.474;2022-08-11T05:22:59;99775.59;;;18.65;100.00
50734;BME280;36701;51.798;19.474;2022-08-11T05:25:47;99770.44;;;18.59;100.00
50734;BME280;36701;51.798;19.474;2022-08-11T05:28:39;99780.97;;;18.76;100.00
50734;BME280;36701;51.798;19.474;2022-08-11T05:31:32;99783.09;;;18.84;100.00
50734;BME280;36701;51.798;19.474;2022-08-11T05:34:26;99754.75;;;18.80;100.00
50734;BME280;36701;51.798;19.474;2022-08-11T05:37:24;99779.37;;;19.04;100.00
50734;BME280;36701;51.798;19.474;2022-08-11T05:40:06;99659.16;;;18.37;100.00
50734;BME280;36701;51.798;19.474;2022-08-11T05:43:11;99776.03;;;19.12;100.00
50734;BME280;36701;51.798;19.474;2022-08-11T05:46:02;99787.13;;;19.21;100.00
50734;BME280;36701;51.798;19.474;2022-08-11T05:48:50;99737.38;;;19.00;100.00
50734;BME280;36701;51.798;19.474;2022-08-11T05:51:43;99752.53;;;19.16;100.00
50734;BME280;36701;51.798;19.474;2022-08-11T05:54:29;99791.44;;;19.51;100.00
50734;BME280;36701;51.798;19.474;2022-08-11T05:57:22;99786.03;;;19.70;100.00
50734;BME280;36701;51.798;19.474;2022-08-11T06:00:01;99777.53;;;19.72;100.00
50734;BME280;36701;51.798;19.474;2022-08-11T06:02:48;99785.47;;;19.98;100.00
50734;BME280;36701;51.798;19.474;2022-08-11T06:05:16;99793.22;;;20.09;100.00
50734;BME280;36701;51.798;19.474;2022-08-11T06:07:43;99772.69;;;20.12;100.00
50734;BME280;36701;51.798;19.474;2022-08-11T06:10:10;99784.94;;;20.14;100.00
50734;BME280;36701;51.798;19.474;2022-08-11T06:12:37;99779.41;;;20.20;100.00
50734;BME280;36701;51.798;19.474;2022-08-11T06:15:08;99789.22;;;20.40;100.00
50734;BME280;36701;51.798;19.474;2022-08-11T06:17:44;99773.31;;;20.42;100.00
50734;BME280;36701;51.798;19.474;2022-08-11T06:20:15;99791.59;;;20.65;100.00
50734;BME280;36701;51.798;19.474;2022-08-11T06:22:54;99757.28;;;20.54;100.00
50734;BME280;36701;51.798;19.474;2022-08-11T06:25:22;99748.63;;;20.47;100.00
50734;BME280;36701;51.798;19.474;2022-08-11T06:27:55;99788.41;;;20.58;100.00
50734;BME280;36701;51.798;19.474;2022-08-11T06:30:38;99760.25;;;20.39;100.00
50734;BME280;36701;51.798;19.474;2022-08-11T06:33:12;99757.44;;;20.44;100.00
50734;BME280;36701;51.798;19.474;2022-08-11T06:38:43;99782.34;;;20.94;100.00
50734;BME280;36701;51.798;19.474;2022-08-11T06:41:19;99788.66;;;21.09;100.00
50734;BME280;36701;51.798;19.474;2022-08-11T06:44:14;99793.03;;;21.10;100.00
50734;BME280;36701;51.798;19.474;2022-08-11T06:49:10;99795.50;;;21.25;100.00
50734;BME280;36701;51.798;19.474;2022-08-11T06:52:08;99799.25;;;21.29;100.00
50734;BME280;36701;51.798;19.474;2022-08-11T06:54:43;99747.50;;;21.14;100.00
50734;BME280;36701;51.798;19.474;2022-08-11T06:57:17;99747.00;;;21.12;100.00
50734;BME280;36701;51.798;19.474;2022-08-11T07:00:03;99754.00;;;21.18;100.00
50734;BME280;36701;51.798;19.474;2022-08-11T07:14:33;99784.28;;;21.54;100.00
50734;BME280;36701;51.798;19.474;2022-08-11T07:17:24;99776.88;;;21.55;100.00
50734;BME280;36701;51.798;19.474;2022-08-11T07:19:55;99786.59;;;21.89;100.00
50734;BME280;36701;51.798;19.474;2022-08-11T07:22:49;99744.69;;;21.74;100.00
50734;BME280;36701;51.798;19.474;2022-08-11T07:25:39;99764.56;;;21.94;100.00
50734;BME280;36701;51.798;19.474;2022-08-11T07:28:27;99771.00;;;22.26;100.00
50734;BME280;36701;51.798;19.474;2022-08-11T07:31:16;99766.38;;;21.99;100.00
50734;BME280;36701;51.798;19.474;2022-08-11T07:33:52;99772.44;;;22.09;100.00
50734;BME280;36701;51.798;19.474;2022-08-11T07:36:24;99752.50;;;22.18;100.00
50734;BME280;36701;51.798;19.474;2022-08-11T07:38:54;99744.03;;;22.05;100.00
50734;BME280;36701;51.798;19.474;2022-08-11T07:41:23;99733.22;;;22.23;100.00
50734;BME280;36701;51.798;19.474;2022-08-11T07:43:54;99724.28;;;22.17;100.00
50734;BME280;36701;51.798;19.474;2022-08-11T07:46:21;99725.69;;;22.14;100.00
50734;BME280;36701;51.798;19.474;2022-08-11T07:49:08;99735.06;;;22.13;100.00
50734;BME280;36701;51.798;19.474;2022-08-11T07:51:54;99769.66;;;22.60;100.00
50734;BME280;36701;51.798;19.474;2022-08-11T07:54:40;99741.47;;;22.45;100.00
50734;BME280;36701;51.798;19.474;2022-08-11T07:57:09;99763.78;;;22.53;100.00
50734;BME280;36701;51.798;19.474;2022-08-11T07:59:55;99752.19;;;22.56;100.00
50734;BME280;36701;51.798;19.474;2022-08-11T08:02:43;99762.81;;;22.48;100.00
50734;BME280;36701;51.798;19.474;2022-08-11T08:05:28;99762.50;;;22.50;100.00
50734;BME280;36701;51.798;19.474;2022-08-11T08:08:15;99732.59;;;22.26;100.00
50734;BME280;36701;51.798;19.474;2022-08-11T08:11:01;99739.72;;;22.49;100.00
50734;BME280;36701;51.798;19.474;2022-08-11T08:13:46;99737.72;;;22.64;100.00
50734;BME280;36701;51.798;19.474;2022-08-11T08:16:32;99769.66;;;22.60;100.00
50734;BME280;36701;51.798;19.474;2022-08-11T08:19:19;99787.50;;;22.71;100.00
50734;BME280;36701;51.798;19.474;2022-08-11T08:21:46;99778.94;;;22.73;100.00
50734;BME280;36701;51.798;19.474;2022-08-11T08:24:14;99739.34;;;22.65;100.00
50734;BME280;36701;51.798;19.474;2022-08-11T08:26:42;99777.63;;;23.15;100.00
50734;BME280;36701;51.798;19.474;2022-08-11T08:29:30;99778.34;;;23.07;100.00
50734;BME280;36701;51.798;19.474;2022-08-11T08:32:17;99743.94;;;22.78;100.00
50734;BME280;36701;51.798;19.474;2022-08-11T08:34:44;99771.75;;;22.85;100.00
50734;BME280;36701;51.798;19.474;2022-08-11T08:37:12;99741.94;;;22.70;100.00
50734;BME280;36701;51.798;19.474;2022-08-11T08:39:38;99699.69;;;22.48;100.00
50734;BME280;36701;51.798;19.474;2022-08-11T08:42:10;99773.50;;;23.04;100.00
50734;BME280;36701;51.798;19.474;2022-08-11T08:44:40;99738.91;;;23.03;100.00
50734;BME280;36701;51.798;19.474;2022-08-11T08:47:15;99776.09;;;23.40;100.00
50734;BME280;36701;51.798;19.474;2022-08-11T08:49:45;99771.59;;;23.13;100.00
50734;BME280;36701;51.798;19.474;2022-08-11T08:52:21;99746.03;;;23.04;100.00
50734;BME280;36701;51.798;19.474;2022-08-11T08:54:51;99768.03;;;23.44;99.59
50734;BME280;36701;51.798;19.474;2022-08-11T08:57:22;99773.09;;;23.60;100.00
50734;BME280;36701;51.798;19.474;2022-08-11T08:59:49;99769.09;;;23.26;99.22
50734;BME280;36701;51.798;19.474;2022-08-11T09:02:18;99734.63;;;23.11;100.00
50734;BME280;36701;51.798;19.474;2022-08-11T09:04:49;99728.03;;;23.20;97.99
50734;BME280;36701;51.798;19.474;2022-08-11T09:07:17;99688.13;;;22.92;94.61
50734;BME280;36701;51.798;19.474;2022-08-11T09:09:47;99734.31;;;23.12;93.71
50734;BME280;36701;51.798;19.474;2022-08-11T09:12:15;99766.56;;;23.38;94.56
50734;BME280;36701;51.798;19.474;2022-08-11T09:14:46;99759.16;;;23.47;89.41
50734;BME280;36701;51.798;19.474;2022-08-11T09:17:28;99760.97;;;23.61;91.78
50734;BME280;36701;51.798;19.474;2022-08-11T09:19:58;99773.78;;;23.74;90.20
50734;BME280;36701;51.798;19.474;2022-08-11T09:22:26;99779.34;;;23.91;92.16
50734;BME280;36701;51.798;19.474;2022-08-11T09:25:13;99772.25;;;23.90;90.29
50734;BME280;36701;51.798;19.474;2022-08-11T09:28:00;99732.59;;;23.91;91.87
50734;BME280;36701;51.798;19.474;2022-08-11T09:30:33;99690.41;;;23.30;90.01
50734;BME280;36701;51.798;19.474;2022-08-11T09:33:01;99709.88;;;23.60;88.99
50734;BME280;36701;51.798;19.474;2022-08-11T09:35:33;99724.75;;;23.67;90.16
50734;BME280;36701;51.798;19.474;2022-08-11T09:38:04;99758.91;;;23.75;82.37
50734;BME280;36701;51.798;19.474;2022-08-11T09:40:50;99733.28;;;23.48;80.52
50734;BME280;36701;51.798;19.474;2022-08-11T09:43:18;99758.81;;;23.98;80.14
50734;BME280;36701;51.798;19.474;2022-08-11T09:46:05;99720.31;;;24.15;81.55
50734;BME280;36701;51.798;19.474;2022-08-11T09:48:51;99714.97;;;23.92;77.90
50734;BME280;36701;51.798;19.474;2022-08-11T09:51:20;99751.84;;;24.09;79.40
50734;BME280;36701;51.798;19.474;2022-08-11T09:53:48;99685.78;;;23.74;79.52
50734;BME280;36701;51.798;19.474;2022-08-11T09:56:17;99729.19;;;23.94;77.74
50734;BME280;36701;51.798;19.474;2022-08-11T09:59:03;99718.84;;;24.09;79.29
50734;BME280;36701;51.798;19.474;2022-08-11T10:01:38;99707.69;;;24.23;79.25
50734;BME280;36701;51.798;19.474;2022-08-11T10:04:19;99724.47;;;24.65;76.07
50734;BME280;36701;51.798;19.474;2022-08-11T10:06:50;99710.06;;;24.77;80.28
50734;BME280;36701;51.798;19.474;2022-08-11T10:09:50;99712.03;;;24.68;73.18
50734;BME280;36701;51.798;19.474;2022-08-11T10:12:24;99739.84;;;24.92;65.17
50734;BME280;36701;51.798;19.474;2022-08-11T10:14:55;99752.75;;;25.00;63.49
50734;BME280;36701;51.798;19.474;2022-08-11T10:17:45;99681.56;;;24.73;71.51
50734;BME280;36701;51.798;19.474;2022-08-11T10:20:34;99734.78;;;24.94;66.99
50734;BME280;36701;51.798;19.474;2022-08-11T10:23:02;99741.84;;;25.13;61.69
50734;BME280;36701;51.798;19.474;2022-08-11T10:25:48;99711.31;;;25.27;64.83
50734;BME280;36701;51.798;19.474;2022-08-11T10:28:34;99725.44;;;25.34;66.20
50734;BME280;36701;51.798;19.474;2022-08-11T10:31:03;99679.72;;;25.33;70.21
50734;BME280;36701;51.798;19.474;2022-08-11T10:33:50;99693.47;;;24.94;59.16
50734;BME280;36701;51.798;19.474;2022-08-11T10:36:38;99718.09;;;24.99;63.17
50734;BME280;36701;51.798;19.474;2022-08-11T10:39:18;99727.28;;;25.51;63.77
50734;BME280;36701;51.798;19.474;2022-08-11T10:41:46;99721.50;;;25.44;62.08
50734;BME280;36701;51.798;19.474;2022-08-11T10:44:36;99719.59;;;25.35;64.73
50734;BME280;36701;51.798;19.474;2022-08-11T10:47:04;99673.84;;;25.64;62.97
50734;BME280;36701;51.798;19.474;2022-08-11T10:49:50;99683.34;;;25.76;61.28
50734;BME280;36701;51.798;19.474;2022-08-11T10:52:44;99676.75;;;26.10;57.09
50734;BME280;36701;51.798;19.474;2022-08-11T10:55:36;99695.03;;;25.93;56.89
50734;BME280;36701;51.798;19.474;2022-08-11T10:58:23;99702.00;;;25.70;59.48
50734;BME280;36701;51.798;19.474;2022-08-11T11:01:09;99705.00;;;26.07;61.48
50734;BME280;36701;51.798;19.474;2022-08-11T11:03:36;99677.91;;;26.42;63.27
50734;BME280;36701;51.798;19.474;2022-08-11T11:06:17;99670.16;;;26.02;57.43
50734;BME280;36701;51.798;19.474;2022-08-11T11:09:30;99699.06;;;26.38;53.29
50734;BME280;36701;51.798;19.474;2022-08-11T11:12:30;99694.41;;;25.88;52.68
50734;BME280;36701;51.798;19.474;2022-08-11T11:15:17;99691.31;;;25.09;63.69
50734;BME280;36701;51.798;19.474;2022-08-11T11:18:09;99676.03;;;24.73;71.57
50734;BME280;36701;51.798;19.474;2022-08-11T11:20:40;99688.16;;;25.19;70.44
50734;BME280;36701;51.798;19.474;2022-08-11T11:25:51;99657.59;;;26.26;60.43
50734;BME280;36701;51.798;19.474;2022-08-11T11:29:10;99667.72;;;26.22;56.93
50734;BME280;36701;51.798;19.474;2022-08-11T11:31:49;99663.00;;;26.22;58.84
50734;BME280;36701;51.798;19.474;2022-08-11T11:36:59;99663.88;;;25.21;62.06
50734;BME280;36701;51.798;19.474;2022-08-11T11:39:29;99663.41;;;25.91;61.65
50734;BME280;36701;51.798;19.474;2022-08-11T11:41:59;99653.59;;;26.02;53.83
50734;BME280;36701;51.798;19.474;2022-08-11T11:44:27;99640.94;;;26.80;53.46
50734;BME280;36701;51.798;19.474;2022-08-11T11:46:54;99628.53;;;26.74;49.91
50734;BME280;36701;51.798;19.474;2022-08-11T11:49:24;99639.59;;;26.74;50.96
50734;BME280;36701;51.798;19.474;2022-08-11T11:51:52;99620.00;;;26.79;52.13
50734;BME280;36701;51.798;19.474;2022-08-11T11:54:24;99638.91;;;26.77;50.42
50734;BME280;36701;51.798;19.474;2022-08-11T11:56:53;99626.47;;;27.08;47.44
50734;BME280;36701;51.798;19.474;2022-08-11T11:59:21;99630.13;;;27.49;47.73
50734;BME280;36701;51.798;19.474;2022-08-11T12:02:07;99625.41;;;27.50;45.92
50734;BME280;36701;51.798;19.474;2022-08-11T12:04:36;99628.91;;;27.75;46.28
50734;BME280;36701;51.798;19.474;2022-08-11T12:07:06;99575.72;;;27.53;44.53
50734;BME280;36701;51.798;19.474;2022-08-11T12:09:53;99628.06;;;27.34;46.26
50734;BME280;36701;51.798;19.474;2022-08-11T12:12:21;99466.50;;;26.41;46.21
50734;BME280;36701;51.798;19.474;2022-08-11T12:15:07;99576.50;;;26.76;47.73
50734;BME280;36701;51.798;19.474;2022-08-11T12:17:35;99616.06;;;27.42;46.27
50734;BME280;36701;51.798;19.474;2022-08-11T12:20:02;99591.69;;;27.32;44.69
50734;BME280;36701;51.798;19.474;2022-08-11T12:22:30;99610.84;;;28.22;42.18
50734;BME280;36701;51.798;19.474;2022-08-11T12:25:16;99604.53;;;28.21;42.29
50734;BME280;36701;51.798;19.474;2022-08-11T12:28:02;99604.31;;;28.14;42.57
50734;BME280;36701;51.798;19.474;2022-08-11T12:30:29;99531.84;;;28.24;43.92
50734;BME280;36701;51.798;19.474;2022-08-11T12:32:55;99589.25;;;29.07;41.14
50734;BME280;36701;51.798;19.474;2022-08-11T12:35:22;99595.22;;;29.25;40.62
50734;BME280;36701;51.798;19.474;2022-08-11T12:37:51;99515.03;;;28.49;40.27
50734;BME280;36701;51.798;19.474;2022-08-11T12:40:25;99602.34;;;27.99;40.63
50734;BME280;36701;51.798;19.474;2022-08-11T12:43:15;99567.66;;;27.61;43.24
50734;BME280;36701;51.798;19.474;2022-08-11T12:46:06;99601.44;;;28.55;43.58
50734;BME280;36701;51.798;19.474;2022-08-11T12:48:43;99593.69;;;28.00;41.92
50734;BME280;36701;51.798;19.474;2022-08-11T12:51:33;99586.16;;;27.07;42.94
50734;BME280;36701;51.798;19.474;2022-08-11T12:54:33;99590.75;;;27.15;45.92
50734;BME280;36701;51.798;19.474;2022-08-11T12:57:14;99545.19;;;26.85;46.50
50734;BME280;36701;51.798;19.474;2022-08-11T13:00:02;99573.06;;;27.57;44.30
50734;BME280;36701;51.798;19.474;2022-08-11T13:02:48;99568.88;;;28.20;42.90
50734;BME280;36701;51.798;19.474;2022-08-11T13:05:34;99560.59;;;28.36;42.23
50734;BME280;36701;51.798;19.474;2022-08-11T13:08:02;99578.03;;;28.08;42.26
50734;BME280;36701;51.798;19.474;2022-08-11T13:10:31;99546.50;;;27.28;44.68
50734;BME280;36701;51.798;19.474;2022-08-11T13:13:24;99574.41;;;27.63;46.34
50734;BME280;36701;51.798;19.474;2022-08-11T13:15:51;99526.44;;;26.90;47.66
50734;BME280;36701;51.798;19.474;2022-08-11T13:18:20;99538.97;;;26.88;49.78
50734;BME280;36701;51.798;19.474;2022-08-11T13:20:52;99541.50;;;26.93;49.74
50734;BME280;36701;51.798;19.474;2022-08-11T13:23:21;99560.34;;;27.15;50.53
50734;BME280;36701;51.798;19.474;2022-08-11T13:25:50;99567.00;;;27.27;51.36
50734;BME280;36701;51.798;19.474;2022-08-11T13:28:20;99557.72;;;27.19;49.60
50734;BME280;36701;51.798;19.474;2022-08-11T13:30:49;99573.84;;;26.92;49.62
50734;BME280;36701;51.798;19.474;2022-08-11T13:33:44;99565.25;;;27.47;51.61
50734;BME280;36701;51.798;19.474;2022-08-11T13:36:12;99497.81;;;27.11;49.52
50734;BME280;36701;51.798;19.474;2022-08-11T13:38:42;99541.66;;;27.25;48.29
50734;BME280;36701;51.798;19.474;2022-08-11T13:41:10;99567.72;;;27.24;44.88
50734;BME280;36701;51.798;19.474;2022-08-11T13:43:55;99529.50;;;27.13;43.83
50734;BME280;36701;51.798;19.474;2022-08-11T13:46:22;99549.25;;;25.50;68.26
50734;BME280;36701;51.798;19.474;2022-08-11T13:48:55;99542.25;;;24.33;98.39
50734;BME280;36701;51.798;19.474;2022-08-11T13:51:23;99547.97;;;24.10;100.00
50734;BME280;36701;51.798;19.474;2022-08-11T13:54:02;99591.03;;;23.98;100.00
50734;BME280;36701;51.798;19.474;2022-08-11T13:56:31;99598.75;;;23.26;100.00
50734;BME280;36701;51.798;19.474;2022-08-11T13:59:00;99577.34;;;22.25;100.00
50734;BME280;36701;51.798;19.474;2022-08-11T14:01:31;99560.03;;;20.97;100.00
50734;BME280;36701;51.798;19.474;2022-08-11T14:04:07;99582.47;;;19.54;100.00
50734;BME280;36701;51.798;19.474;2022-08-11T14:06:35;99608.56;;;19.84;100.00
50734;BME280;36701;51.798;19.474;2022-08-11T14:09:07;99597.81;;;20.07;100.00
50734;BME280;36701;51.798;19.474;2022-08-11T14:11:34;99544.03;;;19.50;100.00
50734;BME280;36701;51.798;19.474;2022-08-11T14:14:24;99606.34;;;20.19;100.00
50734;BME280;36701;51.798;19.474;2022-08-11T14:17:03;99604.72;;;20.18;100.00
50734;BME280;36701;51.798;19.474;2022-08-11T14:19:31;99620.06;;;20.47;100.00
50734;BME280;36701;51.798;19.474;2022-08-11T14:22:01;99636.69;;;20.97;100.00
50734;BME280;36701;51.798;19.474;2022-08-11T14:24:35;99650.56;;;20.87;100.00
50734;BME280;36701;51.798;19.474;2022-08-11T14:27:02;99647.53;;;20.89;100.00
50734;BME280;36701;51.798;19.474;2022-08-11T14:29:29;99590.44;;;20.07;100.00
50734;BME280;36701;51.798;19.474;2022-08-11T14:32:00;99631.12;;;19.71;100.00
50734;BME280;36701;51.798;19.474;2022-08-11T14:34:28;99626.31;;;20.01;100.00
50734;BME280;36701;51.798;19.474;2022-08-11T14:36:58;99625.81;;;19.99;100.00
50734;BME280;36701;51.798;19.474;2022-08-11T14:39:28;99572.09;;;20.08;100.00
50734;BME280;36701;51.798;19.474;2022-08-11T14:41:58;99616.00;;;20.30;100.00
50734;BME280;36701;51.798;19.474;2022-08-11T14:44:56;99563.31;;;20.11;100.00
50734;BME280;36701;51.798;19.474;2022-08-11T14:47:55;99556.34;;;20.32;100.00
50734;BME280;36701;51.798;19.474;2022-08-11T14:50:28;99590.16;;;20.97;100.00
50734;BME280;36701;51.798;19.474;2022-08-11T14:55:28;99602.25;;;21.61;100.00
50734;BME280;36701;51.798;19.474;2022-08-11T14:58:17;99584.44;;;21.94;100.00
50734;BME280;36701;51.798;19.474;2022-08-11T15:00:44;99558.69;;;22.04;100.00
50734;BME280;36701;51.798;19.474;2022-08-11T15:03:12;99554.19;;;22.31;100.00
50734;BME280;36701;51.798;19.474;2022-08-11T15:05:53;99602.03;;;22.47;100.00
50734;BME280;36701;51.798;19.474;2022-08-11T15:08:23;99507.00;;;21.66;100.00
50734;BME280;36701;51.798;19.474;2022-08-11T15:11:10;99565.06;;;21.91;100.00
50734;BME280;36701;51.798;19.474;2022-08-11T15:13:59;99601.12;;;22.29;100.00
50734;BME280;36701;51.798;19.474;2022-08-11T15:16:26;99555.66;;;22.14;100.00
50734;BME280;36701;51.798;19.474;2022-08-11T15:19:12;99611.66;;;22.36;100.00
50734;BME280;36701;51.798;19.474;2022-08-11T15:21:39;99601.44;;;22.05;100.00
50734;BME280;36701;51.798;19.474;2022-08-11T15:24:25;99598.25;;;22.12;100.00
50734;BME280;36701;51.798;19.474;2022-08-11T15:26:51;99599.03;;;21.81;100.00
50734;BME280;36701;51.798;19.474;2022-08-11T15:29:38;99576.41;;;21.75;100.00
50734;BME280;36701;51.798;19.474;2022-08-11T15:32:25;99611.47;;;22.33;100.00
50734;BME280;36701;51.798;19.474;2022-08-11T15:35:13;99609.88;;;22.63;100.00
50734;BME280;36701;51.798;19.474;2022-08-11T15:38:00;99598.59;;;22.73;100.00
50734;BME280;36701;51.798;19.474;2022-08-11T15:40:30;99588.25;;;22.70;100.00
50734;BME280;36701;51.798;19.474;2022-08-11T15:43:22;99597.00;;;22.72;100.00
50734;BME280;36701;51.798;19.474;2022-08-11T15:46:13;99631.16;;;23.64;100.00
50734;BME280;36701;51.798;19.474;2022-08-11T15:48:51;99613.37;;;24.05;100.00
50734;BME280;36701;51.798;19.474;2022-08-11T15:51:36;99581.81;;;24.11;100.00
50734;BME280;36701;51.798;19.474;2022-08-11T15:54:07;99620.25;;;24.93;100.00
50734;BME280;36701;51.798;19.474;2022-08-11T15:56:36;99583.75;;;24.19;100.00
50734;BME280;36701;51.798;19.474;2022-08-11T15:59:06;99549.97;;;23.40;100.00
50734;BME280;36701;51.798;19.474;2022-08-11T16:01:53;99582.63;;;24.03;100.00
50734;BME280;36701;51.798;19.474;2022-08-11T16:04:57;99613.34;;;24.22;100.00
50734;BME280;36701;51.798;19.474;2022-08-11T16:07:32;99541.75;;;24.78;100.00
50734;BME280;36701;51.798;19.474;2022-08-11T16:10:09;99552.69;;;26.01;93.53
50734;BME280;36701;51.798;19.474;2022-08-11T16:12:42;99552.84;;;25.42;93.68
50734;BME280;36701;51.798;19.474;2022-08-11T16:15:43;99588.50;;;24.57;100.00
50734;BME280;36701;51.798;19.474;2022-08-11T16:18:32;99561.28;;;23.91;100.00
50734;BME280;36701;51.798;19.474;2022-08-11T16:21:18;99576.03;;;23.95;100.00
50734;BME280;36701;51.798;19.474;2022-08-11T16:23:46;99546.41;;;23.66;100.00
50734;BME280;36701;51.798;19.474;2022-08-11T16:26:17;99569.84;;;23.72;100.00
50734;BME280;36701;51.798;19.474;2022-08-11T16:28:45;99570.50;;;23.69;100.00
50734;BME280;36701;51.798;19.474;2022-08-11T16:31:12;99572.09;;;23.79;100.00
50734;BME280;36701;51.798;19.474;2022-08-11T16:33:41;99566.47;;;23.57;100.00
50734;BME280;36701;51.798;19.474;2022-08-11T16:36:09;99543.50;;;23.27;100.00
50734;BME280;36701;51.798;19.474;2022-08-11T16:38:56;99523.00;;;22.67;100.00
50734;BME280;36701;51.798;19.474;2022-08-11T16:41:25;99542.09;;;22.72;100.00
50734;BME280;36701;51.798;19.474;2022-08-11T16:44:13;99543.41;;;22.83;100.00
50734;BME280;36701;51.798;19.474;2022-08-11T16:47:03;99515.56;;;22.59;100.00
50734;BME280;36701;51.798;19.474;2022-08-11T16:49:34;99543.63;;;22.56;100.00
50734;BME280;36701;51.798;19.474;2022-08-11T16:52:03;99552.72;;;22.65;100.00
50734;BME280;36701;51.798;19.474;2022-08-11T16:54:34;99510.00;;;22.41;100.00
50734;BME280;36701;51.798;19.474;2022-08-11T16:57:11;99545.25;;;22.57;100.00
50734;BME280;36701;51.798;19.474;2022-08-11T17:00:00;99546.88;;;22.58;100.00
50734;BME280;36701;51.798;19.474;2022-08-11T17:02:31;99546.88;;;22.58;100.00
50734;BME280;36701;51.798;19.474;2022-08-11T17:05:22;99541.59;;;22.30;100.00
50734;BME280;36701;51.798;19.474;2022-08-11T17:08:08;99484.63;;;21.73;100.00
50734;BME280;36701;51.798;19.474;2022-08-11T17:11:01;99499.75;;;21.93;100.00
50734;BME280;36701;51.798;19.474;2022-08-11T17:13:51;99495.19;;;21.80;100.00